Slayton, MN

5:49 AM CST on December 29, 2014 (GMT -0600)
Slayton | Change Station
CLOSE
Current Station
Airport
Location: Slayton,
Elevation: 1624 ft
Nearby Weather Stations
Active Advisory: Wind Chill Advisory

Elev 1624 ft 43.99 °N, 95.78 °W | Updated 16 minutes ago

Overcast
Overcast
3 °F
Feels Like -16 °F
N
16
Wind Variable Wind from North

Today
High -- | Low -- °F
--% Chance of Precip.
Yesterday
High -- | Low -- °F
Precip. -- in
7:57 AM 4:53 PM
First Quarter, 58% visible
Pressure 30.40 in
Visibility 4.0 miles
Clouds Scattered Clouds 500 ft
Scattered Clouds 6500 ft
Overcast 9500 ft
Windchill -16 °F
Dew Point 0 °F
Humidity 85%
Rainfall 0.00 in
Snow Depth Not available.
UV 0 out of 12
Pollen .10 out of 12
Air Quality Not available.
Flu Activity Not available.
METAR KDVP 291133Z AUTO 35014KT 4SM BR SCT005 SCT065 OVC095 M16/M18 A3040 RMK AO2 T11601180

More Conditions Fewer Conditions

Pressure 30.40 in
Visibility 4.0 miles
Clouds Scattered Clouds 500 ft
Scattered Clouds 6500 ft
Overcast 9500 ft
Windchill -16 °F
Dew Point 0 °F
Humidity 85%
Rainfall 0.00 in
Snow Depth Not available.
UV 0 out of 12
Pollen .10 out of 12
Air Quality Not available.
Flu Activity Not available.
METAR KDVP 291133Z AUTO 35014KT 4SM BR SCT005 SCT065 OVC095 M16/M18 A3040 RMK AO2 T11601180

More Conditions Fewer Conditions

10-Day Weather Forecast

Almanac

Astronomy

Dec. 29, 2014 Rise Set
Actual Time
Civil Twilight
Nautical Twilight
Astronomical Twilight
Moon
Length of Visible Light
Length of Day
Tomorrow will be .
, % of the Moon is Illuminated

Today's Extremes

State Highs State Lows

Community

WunderPhotos

Upload Photos

1,781,571 photos uploaded!

WunderBlogs® & News

Nearby

Air Quality

  Air Quality AQ Index Pollutant
Not available.

Snow Depth

Station Depth Elevation

Earthquake Activity

City Distance Mag. Time & Date
Minimum magnitude displayed is 2.5.

Coastal Water Temperatures

Place Temperature

Nearby Weather Stations